Flight Track Log - Related Links

Times and Time Zones

All times are in EDT time to prevent confusion due to time zone crossing. See the FDX437 flight status page for this flight to view local times or setup timezone preferences in your user account.

Time Position Orientation Groundspeed Altitude Reporting Facility
EDT Latitude Longitude Course Direction KTS MPH feet Rate Location/Type
Thu 07:26:11 AM 41.2130 -81.9520 192° South 324 373 10,700  Level FlightAware ADS-B
Thu 07:26:50 AM 41.1640 -81.9650 191° South 324 373 10,700 1,054 Level FlightAware ADS-B
Thu 07:27:25 AM 41.0925 -81.9836 191° South 369 425 12,000 804 Climbing Indianapolis Center
Thu 07:28:27 AM 40.9861 -82.0156 193° South 386 444 12,000 -49 Level Indianapolis Center
Thu 07:29:28 AM 40.8833 -82.0542 196° South 384 442 11,900 -49 Descending Indianapolis Center
Thu 07:30:29 AM 40.7922 -82.1253 211° Southwest 375 432 11,900 49 Level Indianapolis Center
Thu 07:31:30 AM 40.6992 -82.1931 209° Southwest 378 435 12,000 49 Climbing Indianapolis Center
Thu 07:32:32 AM 40.6056 -82.2608 209° Southwest 380 437 12,000  Level Indianapolis Center
Thu 07:33:30 AM 40.5111 -82.3289 209° Southwest 381 438 12,000 -912 Level Indianapolis Center
Thu 07:38:47 AM 40.0680 -82.5570 209° Southwest 273 314 6,300 -1,122 Descending FlightAware ADS-B
Thu 07:39:07 AM 40.0460 -82.5670 199° South 270 311 5,700 -1,650 Descending FlightAware ADS-B
Thu 07:39:27 AM 40.0220 -82.5790 201° Southwest 267 307 5,200 -1,500 Descending FlightAware ADS-B
Thu 07:39:47 AM 39.9990 -82.5900 200° South 264 304 4,700 -1,600 Descending FlightAware ADS-B
Thu 07:39:57 AM 39.9880 -82.5970 206° Southwest 262 302 4,400 -1,600 Descending FlightAware ADS-B
Thu 07:40:02 AM 39.9840 -82.6020 224° Southwest 261 300 4,300 -1,800 Descending FlightAware ADS-B
Thu 07:40:07 AM 39.9790 -82.6070 217° Southwest 259 298 4,100 -2,000 Descending FlightAware ADS-B
Thu 07:40:17 AM 39.9730 -82.6220 242° Southwest 256 295 3,800 -1,600 Descending FlightAware ADS-B
Thu 07:40:37 AM 39.9670 -82.6500 254° West 254 292 3,300 -1,067 Descending FlightAware ADS-B
Thu 07:41:02 AM 39.9590 -82.6820 252° West 247 284 3,000 -471 Descending FlightAware ADS-B
Thu 07:41:28 AM 39.9500 -82.7210 253° West 221 254 2,900 -98 Descending FlightAware ADS-B
Thu 07:42:03 AM 39.9410 -82.7590 253° West 211 243 2,900 156 Level FlightAware ADS-B
Thu 07:42:45 AM 39.9108 -82.7944 253° West 212 244 3,100 -175 Climbing Indianapolis Center
Thu 07:43:46 AM 39.8753 -82.8419 226° Southwest 194 223 2,600 -829 Descending Indianapolis Center
Thu 07:44:48 AM 39.8422 -82.8853 225° Southwest 182 209 1,400 -732 Descending Indianapolis Center
Thu 07:45:49 AM 39.8178 -82.9192 227° Southwest 169 194 1,100 -295 Descending Indianapolis Center

Login

Don't have an account? Register now (free) for customized features, flight alerts, and more!